This is the latest recevied weather packets stored in our database for station/object DL9GJ-6. If no packets are shown the sender has not sent any weather packets the latest 1 day(s).
| Time | Temp. | Humidity | Pressure | Rain* | Wind** | Luminosity | Snow |
|---|---|---|---|---|---|---|---|
| 1778005950 | 15.56° C | 74% | 1006.6 hPa | 0 mm | 0.89 m/s, 249° | 0 W/m² | - |
| 1778005928 | 15.56° C | 74% | 1006.6 hPa | 0 mm | 0.89 m/s, 249° | 0 W/m² | - |
| 1778005582 | 15.56° C | 74% | 1006.6 hPa | 0 mm | 0 m/s | 5 W/m² | - |
| 1778005221 | 15.56° C | 74% | 1006.6 hPa | 0 mm | 0 m/s | 12 W/m² | - |
| 1778004862 | 15.56° C | 73% | 1006.4 hPa | 0 mm | 0 m/s | 17 W/m² | - |
| 1778004849 | 15.56° C | 73% | 1006.4 hPa | 0 mm | 0 m/s | 17 W/m² | - |
| 1778004501 | 15.56° C | 73% | 1006.3 hPa | 0 mm | 0 m/s | 23 W/m² | - |
| 1778004141 | 16.11° C | 72% | 1006.2 hPa | 0 mm | 0 m/s | 31 W/m² | - |
| 1778003781 | 16.11° C | 71% | 1006.2 hPa | 0 mm | 0 m/s | 36 W/m² | - |
| 1778003422 | 16.11° C | 71% | 1006.2 hPa | 0 mm | 0 m/s | 34 W/m² | - |
| 1778003062 | 16.11° C | 70% | 1006.2 hPa | 0 mm | 0.45 m/s, 264° | 30 W/m² | - |
| 1778002701 | 16.11° C | 69% | 1006.2 hPa | 0 mm | 0.45 m/s, 313° | 27 W/m² | - |
| 1778002688 | 16.11° C | 69% | 1006.2 hPa | 0 mm | 0.45 m/s, 313° | 27 W/m² | - |
| 1778002340 | 16.67° C | 68% | 1006.1 hPa | 0 mm | 1.34 m/s, 269° | 24 W/m² | - |
| 1778001981 | 16.67° C | 69% | 1006.2 hPa | 0 mm | 1.34 m/s, 291° | 25 W/m² | - |
| 1778001621 | 16.67° C | 69% | 1006.1 hPa | 0 mm | 1.34 m/s, 290° | 29 W/m² | - |
| 1778001260 | 16.67° C | 68% | 1005.9 hPa | 0 mm | 1.34 m/s, 271° | 58 W/m² | - |
| 1778000901 | 16.67° C | 67% | 1005.9 hPa | 0 mm | 1.34 m/s, 278° | 71 W/m² | - |
| 1778000889 | 16.67° C | 67% | 1005.9 hPa | 0 mm | 1.34 m/s, 278° | 71 W/m² | - |
| 1778000540 | 17.22° C | 67% | 1005.9 hPa | 0 mm | 0.45 m/s, 252° | 87 W/m² | - |
| 1778000181 | 17.22° C | 69% | 1005.8 hPa | 0 mm | 0 m/s | 106 W/m² | - |
| 1777999822 | 17.22° C | 69% | 1005.9 hPa | 0 mm | 0 m/s | 110 W/m² | - |
| 1777999461 | 17.22° C | 65% | 1005.7 hPa | 0 mm | 0.45 m/s, 290° | 87 W/m² | - |
| 1777999102 | 17.22° C | 65% | 1005.8 hPa | 0 mm | 0 m/s | 106 W/m² | - |
| 1777998741 | 17.22° C | 66% | 1005.7 hPa | 0 mm | 0 m/s | 100 W/m² | - |
* Rain latest hour (hover to see other rain measurements)
** Current wind speed in m/s (hover to see current wind gust speed)